FIMP/MRU METAR and TAF weather

Enter ICAO airport designator
Station Type Date Time Source
FIMP METAR 2021/01/16 03:00 UTC NOAA

FIMP 160300Z 09010KT 9999 VCSH FEW009 SCT015 27/25 Q1012


Station Type Date Time Source
FIMP Decoded METAR 2021/01/16 03:00 UTC NOAA

Plaisance Mauritius , Mauritius (FIMP) 20-26S 057-40E 57M
Jan 15, 2021 - 10:00 PM EST / 2021.01.16 0300 UTC
Wind: from the E (090 degrees) at 12 MPH (10 KT):0
Visibility: greater than 7 mile(s):0
Sky conditions: partly cloudy
Weather: showers in the vicinity
Temperature: 80 F (27 C)
Dew Point: 77 F (25 C)
Relative Humidity: 88%
Pressure (altimeter): 29.88 in. Hg (1012 hPa)
ob: FIMP 160300Z 09010KT 9999 VCSH FEW009 SCT015 27/25 Q1012
cycle: 3

Station Type Date Time Source
FIMP TAF 2021/01/15 18:10 UTC NOAA

TAF FIMP 151705Z 1518/1700 08008KT 9999 SCT015
BECMG 1520/1522 32003KT PROB30
TEMPO 1600/1603 7000 -SHRA FEW010 SCT015 BKN050
BECMG 1604/1606 09010KT

Example: see airport list